Time;durP1;ratioP1;P1;durP2;ratioP2;P2;SDS_P1;SDS_P2;PMS_P1;PMS_P2;Temp;Humidity;BMP_temperature;BMP_pressure;BME280_temperature;BME280_humidity;BME280_pressure;Samples;Min_cycle;Max_cycle;Signal;HPM_P1;HPM_P2
2022/12/24 00:01:40;;;;;;;12.18;6.40;;;8.70;89.60;;;;;;5052413;28;20049;-72
2022/12/24 00:04:09;;;;;;;12.63;6.60;;;8.70;89.60;;;;;;5048310;28;20057;-73
2022/12/24 00:06:36;;;;;;;13.50;6.80;;;8.60;89.50;;;;;;5067926;28;20151;-72
2022/12/24 00:09:04;;;;;;;13.82;7.03;;;8.60;89.60;;;;;;5043675;28;20494;-72
2022/12/24 00:11:31;;;;;;;10.90;5.30;;;8.60;89.50;;;;;;5080650;28;20044;-72
2022/12/24 00:13:58;;;;;;;11.40;6.05;;;8.60;89.60;;;;;;5082645;28;20056;-72
2022/12/24 00:16:25;;;;;;;10.52;5.93;;;8.60;89.60;;;;;;5060224;28;20107;-72
2022/12/24 00:18:52;;;;;;;9.07;4.37;;;8.60;89.70;;;;;;5070125;28;20758;-72
2022/12/24 00:21:20;;;;;;;7.82;4.38;;;8.60;89.80;;;;;;5052358;28;20051;-72
2022/12/24 00:23:48;;;;;;;15.88;7.32;;;8.60;90.10;;;;;;5032179;28;20049;-72
2022/12/24 00:26:15;;;;;;;17.08;7.00;;;8.60;90.10;;;;;;5034949;28;20050;-72
2022/12/24 00:28:42;;;;;;;15.13;7.03;;;8.60;90.20;;;;;;5060623;28;20119;-72
2022/12/24 00:31:11;;;;;;;14.60;6.47;;;8.50;90.30;;;;;;5066117;28;20176;-72
2022/12/24 00:33:38;;;;;;;13.77;6.53;;;8.50;90.50;;;;;;5052058;28;20060;-72
2022/12/24 00:36:06;;;;;;;15.38;7.57;;;8.50;90.60;;;;;;5051926;28;20049;-72
2022/12/24 00:38:35;;;;;;;9.82;4.22;;;8.50;90.70;;;;;;5052155;28;20049;-72
2022/12/24 00:41:04;;;;;;;12.93;6.72;;;8.50;90.90;;;;;;5051947;28;20049;-72
2022/12/24 00:43:31;;;;;;;14.87;6.73;;;8.50;91.00;;;;;;5034586;28;20049;-72
2022/12/24 00:46:00;;;;;;;17.42;8.77;;;8.50;91.30;;;;;;5070077;28;20099;-72
2022/12/24 00:48:27;;;;;;;9.38;3.92;;;8.50;91.50;;;;;;5067960;28;20497;-72
2022/12/24 00:50:55;;;;;;;12.65;6.97;;;8.50;91.70;;;;;;5051189;28;21029;-72
2022/12/24 00:53:22;;;;;;;13.50;5.78;;;8.50;91.90;;;;;;5069918;28;20106;-72
2022/12/24 00:55:50;;;;;;;17.43;8.67;;;8.50;92.20;;;;;;5051520;28;20144;-72
2022/12/24 00:58:17;;;;;;;14.88;7.18;;;8.40;92.20;;;;;;5051387;28;20049;-72
2022/12/24 01:00:44;;;;;;;15.35;6.50;;;8.50;92.40;;;;;;5051225;28;20750;-72
2022/12/24 01:03:11;;;;;;;17.17;7.55;;;8.50;92.50;;;;;;5051542;28;20056;-72
2022/12/24 01:05:37;;;;;;;20.40;9.18;;;8.50;92.60;;;;;;5051466;28;20076;-72
2022/12/24 01:08:05;;;;;;;19.50;7.93;;;8.50;92.50;;;;;;5049781;28;20090;-72
2022/12/24 01:10:32;;;;;;;21.90;10.13;;;8.40;92.50;;;;;;5051808;28;20073;-72
2022/12/24 01:13:02;;;;;;;13.20;5.78;;;8.50;92.70;;;;;;5051550;28;20557;-72
2022/12/24 01:15:30;;;;;;;14.80;6.63;;;8.50;92.60;;;;;;5048438;28;20133;-72
2022/12/24 01:17:57;;;;;;;16.00;9.55;;;8.50;92.70;;;;;;5031195;28;20049;-72
2022/12/24 01:20:30;;;;;;;15.40;7.23;;;8.50;92.90;;;;;;5031179;28;20060;-72
2022/12/24 01:22:57;;;;;;;22.70;8.68;;;8.50;93.00;;;;;;5049011;28;20057;-72
2022/12/24 01:25:24;;;;;;;12.73;5.65;;;8.50;92.90;;;;;;5066108;28;20057;-72
2022/12/24 01:27:51;;;;;;;17.02;7.95;;;8.60;92.90;;;;;;5051597;28;20136;-72
2022/12/24 01:30:20;;;;;;;14.80;5.82;;;8.50;93.00;;;;;;5050727;28;20580;-72
2022/12/24 01:32:47;;;;;;;19.67;8.57;;;8.60;93.00;;;;;;5051222;28;20049;-72
2022/12/24 01:35:15;;;;;;;15.98;7.78;;;8.60;93.00;;;;;;5050988;28;20045;-72
2022/12/24 01:37:43;;;;;;;11.93;4.78;;;8.60;93.00;;;;;;5051317;28;20052;-71
2022/12/24 01:45:49;;;;;;;19.30;9.77;;;8.60;93.10;;;;;;5077701;28;20055;-72
2022/12/24 01:48:22;;;;;;;13.43;6.18;;;8.60;93.10;;;;;;5058778;28;21128;-72
2022/12/24 01:50:54;;;;;;;11.48;5.38;;;8.60;93.10;;;;;;5039740;28;20053;-72
2022/12/24 01:53:21;;;;;;;10.18;4.57;;;8.70;93.10;;;;;;5045499;28;20053;-72
2022/12/24 01:55:49;;;;;;;14.20;6.78;;;8.80;93.20;;;;;;5063800;28;20148;-72
2022/12/24 01:58:17;;;;;;;13.20;5.23;;;8.80;93.00;;;;;;5050591;28;20045;-73
2022/12/24 02:00:45;;;;;;;15.88;6.88;;;8.80;93.00;;;;;;5066899;28;20053;-72
2022/12/24 02:03:13;;;;;;;13.20;6.13;;;8.90;92.90;;;;;;5050296;28;20041;-72
2022/12/24 02:05:47;;;;;;;12.77;4.22;;;8.90;92.80;;;;;;5061143;28;20058;-72
2022/12/24 02:08:15;;;;;;;13.13;6.28;;;8.90;92.70;;;;;;5046791;28;20471;-72
2022/12/24 02:10:42;;;;;;;12.03;5.10;;;8.90;92.60;;;;;;5050419;28;20049;-72
2022/12/24 02:13:10;;;;;;;14.98;6.63;;;9.00;92.50;;;;;;5050196;28;20128;-72
2022/12/24 02:15:49;;;;;;;14.57;6.38;;;9.00;92.30;;;;;;5048880;28;20132;-72
2022/12/24 02:18:26;;;;;;;10.70;3.10;;;9.00;92.30;;;;;;5067052;28;20156;-72
2022/12/24 02:21:23;;;;;;;8.55;4.13;;;9.00;92.10;;;;;;5050559;28;20128;-72
2022/12/24 02:24:15;;;;;;;12.30;4.60;;;9.00;92.10;;;;;;5050180;28;20848;-72
2022/12/24 02:27:02;;;;;;;8.70;3.55;;;9.00;92.10;;;;;;5049407;28;20148;-72
2022/12/24 02:30:03;;;;;;;11.60;4.57;;;9.00;92.20;;;;;;5049563;28;20859;-72
2022/12/24 02:32:37;;;;;;;10.57;3.42;;;9.00;92.30;;;;;;5068250;28;20572;-72
2022/12/24 02:35:09;;;;;;;11.20;4.22;;;9.00;92.40;;;;;;5047995;28;20049;-72
2022/12/24 02:37:39;;;;;;;7.17;2.47;;;9.00;92.50;;;;;;5033523;28;20889;-72
2022/12/24 02:40:10;;;;;;;12.35;3.20;;;9.00;92.60;;;;;;5049880;28;20644;-72
2022/12/24 02:42:41;;;;;;;8.60;1.80;;;9.10;92.60;;;;;;5049902;28;20055;-72
2022/12/24 02:45:13;;;;;;;15.45;2.90;;;9.10;92.60;;;;;;5056762;28;20172;-72
2022/12/24 02:47:42;;;;;;;17.67;3.58;;;9.10;92.60;;;;;;5048015;28;20459;-72
2022/12/24 02:50:11;;;;;;;12.00;2.30;;;9.20;92.60;;;;;;5047942;28;20053;-72
2022/12/24 02:52:41;;;;;;;24.65;4.25;;;9.20;92.40;;;;;;5054380;28;20144;-72
2022/12/24 02:55:12;;;;;;;17.02;2.28;;;9.20;92.20;;;;;;5067898;28;20057;-72
2022/12/24 02:58:03;;;;;;;13.82;2.38;;;9.20;91.80;;;;;;5048791;28;20136;-72
2022/12/24 03:00:41;;;;;;;17.70;2.55;;;9.20;91.70;;;;;;5033838;28;20049;-72
2022/12/24 03:03:22;;;;;;;22.13;3.07;;;9.20;91.50;;;;;;5067810;28;20107;-72
2022/12/24 03:05:54;;;;;;;22.75;3.47;;;9.20;91.40;;;;;;5032136;28;20129;-72
2022/12/24 03:08:32;;;;;;;17.98;2.83;;;9.20;91.10;;;;;;5066903;28;20503;-72
2022/12/24 03:11:04;;;;;;;19.77;2.65;;;9.20;91.10;;;;;;5047836;28;20049;-71
2022/12/24 03:13:32;;;;;;;15.82;2.70;;;9.20;91.00;;;;;;5049091;28;20963;-72
2022/12/24 03:16:03;;;;;;;22.77;2.80;;;9.20;90.90;;;;;;5067007;28;20207;-72
2022/12/24 03:18:31;;;;;;;16.77;2.30;;;9.20;90.80;;;;;;5048156;28;20052;-72
2022/12/24 03:21:03;;;;;;;20.33;2.33;;;9.20;90.70;;;;;;5047450;28;20167;-72
2022/12/24 03:23:30;;;;;;;14.45;1.98;;;9.20;90.60;;;;;;5065834;28;20071;-72
2022/12/24 03:26:01;;;;;;;21.38;3.30;;;9.20;90.30;;;;;;5047965;28;20134;-72
2022/12/24 03:28:29;;;;;;;23.33;2.43;;;9.20;90.30;;;;;;5064424;28;20099;-72
2022/12/24 03:30:56;;;;;;;17.20;2.50;;;9.20;90.30;;;;;;5065898;28;20568;-72
2022/12/24 03:33:24;;;;;;;21.63;3.13;;;9.20;90.10;;;;;;5067810;28;20049;-72
2022/12/24 03:35:51;;;;;;;23.67;2.83;;;9.20;89.80;;;;;;5049464;28;20049;-72
2022/12/24 03:38:19;;;;;;;18.73;2.80;;;9.20;89.80;;;;;;5052741;28;20056;-72
2022/12/24 03:40:46;;;;;;;17.30;2.43;;;9.20;89.80;;;;;;5046842;28;20582;-72
2022/12/24 03:43:13;;;;;;;14.35;2.30;;;9.30;89.80;;;;;;5028860;28;20131;-72
2022/12/24 03:45:40;;;;;;;20.40;3.50;;;9.30;89.60;;;;;;5033744;28;20049;-71
2022/12/24 03:48:07;;;;;;;22.15;2.80;;;9.30;89.60;;;;;;5049408;28;20059;-72
2022/12/24 03:50:35;;;;;;;19.15;2.60;;;9.30;89.40;;;;;;5043089;28;20116;-72
2022/12/24 03:53:02;;;;;;;19.97;3.17;;;9.40;89.40;;;;;;5047743;28;20180;-71
2022/12/24 03:55:30;;;;;;;16.50;2.30;;;9.40;89.20;;;;;;5048915;28;20049;-72
2022/12/24 03:57:57;;;;;;;24.33;3.20;;;9.40;88.90;;;;;;5049163;28;20081;-72
2022/12/24 04:00:24;;;;;;;20.42;2.63;;;9.40;88.90;;;;;;5066868;28;20077;-72
2022/12/24 04:02:51;;;;;;;12.70;2.20;;;9.40;88.70;;;;;;5047594;28;20057;-72
2022/12/24 04:05:20;;;;;;;23.93;3.63;;;9.40;88.80;;;;;;5049067;28;20045;-72
2022/12/24 04:07:48;;;;;;;18.35;3.05;;;9.40;88.70;;;;;;5067309;28;20132;-71
2022/12/24 04:10:16;;;;;;;22.38;2.53;;;9.40;88.60;;;;;;5048822;28;20055;-72
2022/12/24 04:12:43;;;;;;;11.45;1.45;;;9.40;88.60;;;;;;5032962;28;20049;-72
2022/12/24 04:15:11;;;;;;;19.83;3.08;;;9.40;88.30;;;;;;5011878;28;20042;-72
2022/12/24 04:17:38;;;;;;;15.57;2.33;;;9.40;88.40;;;;;;5029599;28;20058;-72
2022/12/24 04:20:06;;;;;;;17.63;2.10;;;9.40;88.20;;;;;;5031937;28;20060;-72
2022/12/24 04:22:33;;;;;;;24.50;3.38;;;9.40;88.20;;;;;;5050174;28;20053;-72
2022/12/24 04:25:02;;;;;;;11.18;1.88;;;9.40;88.20;;;;;;5069999;28;20215;-71
2022/12/24 04:27:30;;;;;;;30.30;3.97;;;9.40;88.20;;;;;;5069706;28;20159;-72
2022/12/24 04:29:57;;;;;;;17.77;2.40;;;9.40;88.10;;;;;;5038062;28;20050;-72
2022/12/24 04:32:25;;;;;;;27.35;4.00;;;9.30;88.10;;;;;;5031821;28;20744;-71
2022/12/24 04:34:52;;;;;;;21.33;2.65;;;9.30;88.00;;;;;;5049771;28;20060;-72
2022/12/24 04:37:20;;;;;;;21.15;3.58;;;9.30;88.20;;;;;;5049568;28;20053;-72
2022/12/24 04:39:47;;;;;;;21.75;2.92;;;9.30;88.30;;;;;;5061871;28;20059;-72
2022/12/24 04:42:15;;;;;;;26.70;3.87;;;9.20;88.30;;;;;;5051701;28;20136;-72
2022/12/24 04:44:42;;;;;;;24.98;3.53;;;9.20;88.50;;;;;;5051884;28;20051;-72
2022/12/24 04:47:09;;;;;;;23.75;3.85;;;9.20;88.70;;;;;;5069862;28;20057;-72
2022/12/24 04:49:36;;;;;;;21.38;3.35;;;9.20;88.70;;;;;;5052174;28;20135;-72
2022/12/24 04:52:04;;;;;;;20.58;3.13;;;9.20;88.80;;;;;;5032087;28;20953;-72
2022/12/24 04:54:31;;;;;;;16.57;2.37;;;9.20;88.90;;;;;;5049573;28;20061;-72
2022/12/24 04:56:58;;;;;;;27.83;3.15;;;9.20;88.90;;;;;;5039702;28;20048;-71
2022/12/24 04:59:27;;;;;;;23.58;3.33;;;9.20;88.90;;;;;;5067089;28;20053;-72
2022/12/24 05:01:54;;;;;;;23.55;3.60;;;9.20;89.10;;;;;;5031322;28;20049;-72
2022/12/24 05:04:21;;;;;;;16.60;2.88;;;9.20;89.10;;;;;;5031571;28;20053;-71
2022/12/24 05:06:48;;;;;;;27.00;3.93;;;9.20;89.10;;;;;;5031522;28;20046;-72
2022/12/24 05:09:15;;;;;;;20.00;3.25;;;9.20;89.10;;;;;;5031382;28;20046;-71
2022/12/24 05:11:42;;;;;;;19.73;2.83;;;9.20;89.30;;;;;;5049709;28;20059;-71
2022/12/24 05:14:09;;;;;;;17.25;2.28;;;9.20;89.30;;;;;;5051986;28;20148;-72
2022/12/24 05:16:38;;;;;;;18.15;3.22;;;9.20;89.30;;;;;;5051245;28;20059;-71
2022/12/24 05:19:05;;;;;;;29.00;3.93;;;9.20;89.40;;;;;;5050872;28;20053;-72
2022/12/24 05:21:32;;;;;;;21.05;2.75;;;9.20;89.40;;;;;;5069426;28;20053;-72
2022/12/24 05:26:46;;;;;;;26.40;3.47;;;9.20;89.60;;;;;;5069249;28;20092;-72
2022/12/24 05:29:13;;;;;;;21.23;3.60;;;9.20;89.70;;;;;;5050813;28;20045;-72
2022/12/24 05:31:43;;;;;;;23.90;3.40;;;9.20;89.70;;;;;;5047777;28;20041;-72
2022/12/24 05:34:12;;;;;;;22.23;3.13;;;9.20;89.70;;;;;;5053602;28;20041;-72
2022/12/24 05:36:39;;;;;;;23.65;3.13;;;9.20;89.70;;;;;;5065245;28;20131;-72
2022/12/24 05:39:07;;;;;;;32.05;4.60;;;9.20;89.70;;;;;;5070492;28;20056;-72
2022/12/24 05:41:34;;;;;;;27.65;3.88;;;9.20;89.70;;;;;;5076829;28;20062;-72
2022/12/24 05:44:01;;;;;;;19.07;3.23;;;9.20;89.80;;;;;;5033698;28;20156;-72
2022/12/24 05:46:28;;;;;;;27.20;3.17;;;9.20;89.80;;;;;;5050805;28;20041;-72
2022/12/24 05:48:56;;;;;;;19.67;3.67;;;9.20;89.90;;;;;;5069062;28;20056;-72
2022/12/24 05:51:24;;;;;;;28.40;3.83;;;9.30;89.90;;;;;;5048979;28;20566;-72
2022/12/24 05:53:51;;;;;;;26.50;3.85;;;9.30;90.00;;;;;;5068711;28;20129;-72
2022/12/24 05:56:20;;;;;;;29.23;3.77;;;9.30;90.10;;;;;;5050675;28;20057;-71
2022/12/24 05:58:47;;;;;;;19.17;2.55;;;9.40;90.10;;;;;;5045982;28;20053;-72
2022/12/24 06:01:15;;;;;;;25.30;3.90;;;9.40;90.00;;;;;;5030174;28;20049;-72
2022/12/24 06:03:42;;;;;;;21.63;3.13;;;9.40;90.00;;;;;;5030669;28;20045;-72
2022/12/24 06:06:13;;;;;;;24.92;3.97;;;9.30;90.10;;;;;;5030454;28;20046;-72
2022/12/24 06:08:41;;;;;;;23.43;3.20;;;9.40;90.10;;;;;;5044477;28;20053;-71
2022/12/24 06:11:11;;;;;;;24.83;4.85;;;9.40;90.20;;;;;;5068537;28;20053;-72
2022/12/24 06:13:38;;;;;;;28.80;4.30;;;9.40;90.30;;;;;;5049829;28;20049;-71
2022/12/24 06:16:07;;;;;;;24.77;4.13;;;9.40;90.30;;;;;;5061318;28;20123;-72
2022/12/24 06:18:35;;;;;;;22.02;4.28;;;9.40;90.30;;;;;;5030610;28;20055;-72
2022/12/24 06:21:03;;;;;;;27.97;4.23;;;9.40;90.20;;;;;;5048186;28;20112;-72
2022/12/24 06:23:34;;;;;;;25.85;4.60;;;9.40;90.20;;;;;;5030847;28;20133;-72
2022/12/24 06:26:03;;;;;;;30.13;4.82;;;9.40;90.30;;;;;;5054696;28;20868;-72
2022/12/24 06:28:31;;;;;;;24.85;4.53;;;9.40;90.30;;;;;;5050034;28;20055;-72
2022/12/24 06:30:59;;;;;;;18.75;3.63;;;9.40;90.30;;;;;;5049779;28;20140;-72
2022/12/24 06:33:27;;;;;;;30.40;4.90;;;9.40;90.40;;;;;;5030285;28;20041;-72
2022/12/24 06:35:54;;;;;;;23.70;3.90;;;9.40;90.30;;;;;;5060455;28;20139;-72
2022/12/24 06:38:21;;;;;;;23.30;3.50;;;9.40;90.30;;;;;;5050095;28;20067;-72
2022/12/24 06:40:49;;;;;;;26.40;3.58;;;9.40;90.20;;;;;;5048864;28;20045;-72
2022/12/24 06:43:17;;;;;;;27.02;3.60;;;9.40;90.20;;;;;;5047418;28;20048;-70
2022/12/24 06:45:46;;;;;;;29.00;4.50;;;9.40;90.30;;;;;;5049827;28;20129;-72
2022/12/24 06:48:14;;;;;;;29.90;4.57;;;9.40;90.30;;;;;;5068044;28;20053;-72
2022/12/24 06:50:41;;;;;;;24.67;4.40;;;9.40;90.30;;;;;;5049574;28;20515;-72
2022/12/24 06:53:09;;;;;;;23.83;4.03;;;9.40;90.30;;;;;;5049445;28;20049;-71
2022/12/24 06:55:36;;;;;;;24.92;4.45;;;9.40;90.40;;;;;;5032892;28;20045;-72
2022/12/24 06:58:05;;;;;;;27.57;4.07;;;9.40;90.40;;;;;;5050038;28;20052;-72
2022/12/24 07:00:32;;;;;;;24.65;3.40;;;9.40;90.40;;;;;;5047978;28;20127;-72
2022/12/24 07:02:59;;;;;;;22.75;3.28;;;9.40;90.30;;;;;;5049669;28;20107;-72
2022/12/24 07:05:27;;;;;;;31.40;4.97;;;9.40;90.30;;;;;;5068027;28;20061;-72
2022/12/24 07:07:54;;;;;;;22.67;3.35;;;9.40;90.30;;;;;;5067460;28;20052;-72
2022/12/24 07:10:21;;;;;;;21.77;3.40;;;9.50;90.30;;;;;;5067567;28;20049;-72
2022/12/24 07:12:49;;;;;;;23.75;3.38;;;9.40;90.30;;;;;;5067682;28;20164;-72
2022/12/24 07:15:18;;;;;;;15.50;3.42;;;9.40;90.20;;;;;;5049889;28;20052;-72
2022/12/24 07:17:45;;;;;;;27.40;4.32;;;9.40;90.20;;;;;;5049720;28;20057;-72
2022/12/24 07:20:14;;;;;;;17.60;3.03;;;9.40;90.20;;;;;;5047723;28;20490;-72
2022/12/24 07:22:42;;;;;;;17.67;2.57;;;9.40;90.20;;;;;;5067613;28;20895;-72
2022/12/24 07:25:10;;;;;;;21.08;3.40;;;9.40;90.20;;;;;;5067194;28;20160;-72
2022/12/24 07:27:37;;;;;;;18.50;2.80;;;9.40;90.30;;;;;;5067614;28;20052;-72
2022/12/24 07:30:06;;;;;;;21.52;3.33;;;9.40;90.20;;;;;;5067419;28;20655;-72
2022/12/24 07:32:35;;;;;;;25.15;3.67;;;9.40;90.30;;;;;;5067719;28;20057;-72
2022/12/24 07:35:04;;;;;;;24.73;3.30;;;9.40;90.20;;;;;;5129562;22;20053;-72
2022/12/24 07:37:31;;;;;;;22.90;2.75;;;9.40;90.30;;;;;;5061473;28;20132;-72
2022/12/24 07:39:58;;;;;;;19.20;3.05;;;9.40;90.30;;;;;;5067420;28;20127;-72
2022/12/24 07:42:26;;;;;;;18.00;3.05;;;9.40;90.40;;;;;;5088089;28;20056;-72
2022/12/24 07:44:53;;;;;;;20.88;3.60;;;9.40;90.30;;;;;;5095266;28;20115;-72
2022/12/24 07:47:20;;;;;;;24.63;3.57;;;9.40;90.30;;;;;;5090076;28;20167;-72
2022/12/24 07:49:48;;;;;;;23.58;3.05;;;9.40;90.30;;;;;;5051063;28;20048;-72
2022/12/24 07:52:16;;;;;;;16.60;2.55;;;9.50;90.30;;;;;;5067667;28;20044;-72
2022/12/24 07:54:43;;;;;;;19.80;3.00;;;9.50;90.20;;;;;;5073053;28;20044;-72
2022/12/24 07:57:10;;;;;;;18.83;2.97;;;9.40;90.20;;;;;;5080045;28;20729;-71
2022/12/24 07:59:37;;;;;;;18.53;2.80;;;9.50;90.30;;;;;;5080422;28;20395;-72
2022/12/24 08:02:14;;;;;;;22.35;3.25;;;9.40;90.20;;;;;;5068238;28;20036;-71
2022/12/24 08:04:41;;;;;;;17.50;3.13;;;9.50;90.20;;;;;;5066949;28;20049;-72
2022/12/24 08:07:10;;;;;;;19.00;3.22;;;9.50;90.10;;;;;;5069360;28;20048;-72
2022/12/24 08:09:38;;;;;;;21.98;3.35;;;9.50;90.20;;;;;;5067359;28;20583;-72
2022/12/24 08:12:06;;;;;;;26.53;4.07;;;9.50;90.20;;;;;;5084546;28;20057;-72
2022/12/24 08:14:33;;;;;;;24.48;3.50;;;9.50;90.20;;;;;;5069279;28;20047;-72
2022/12/24 08:17:00;;;;;;;24.25;3.97;;;9.50;90.00;;;;;;5068734;28;20118;-72
2022/12/24 08:19:27;;;;;;;19.45;3.95;;;9.50;90.00;;;;;;5071916;28;20103;-72
2022/12/24 08:21:54;;;;;;;18.95;3.13;;;9.50;90.00;;;;;;5072475;28;20052;-72
2022/12/24 08:24:23;;;;;;;28.60;4.07;;;9.50;90.00;;;;;;5072663;28;20082;-72
2022/12/24 08:26:50;;;;;;;17.67;3.15;;;9.50;90.10;;;;;;5085918;28;20427;-72
2022/12/24 08:29:17;;;;;;;29.90;4.32;;;9.50;90.00;;;;;;5077685;28;20482;-72
2022/12/24 08:31:44;;;;;;;22.10;3.40;;;9.50;90.10;;;;;;5069499;28;20129;-72
2022/12/24 08:34:11;;;;;;;26.75;4.13;;;9.50;90.00;;;;;;5078073;28;20143;-72
2022/12/24 08:36:38;;;;;;;23.23;3.77;;;9.50;90.00;;;;;;5075883;28;20155;-72
2022/12/24 08:39:07;;;;;;;20.67;3.20;;;9.50;90.10;;;;;;5072369;27;20048;-74
2022/12/24 08:41:36;;;;;;;24.75;3.72;;;9.50;90.10;;;;;;5059946;28;20438;-72
2022/12/24 08:44:04;;;;;;;12.98;2.78;;;9.50;90.10;;;;;;5097283;28;20525;-72
2022/12/24 08:46:31;;;;;;;25.02;3.55;;;9.50;90.20;;;;;;5074957;28;20139;-72
2022/12/24 08:48:58;;;;;;;22.43;3.73;;;9.50;90.20;;;;;;5074906;28;20049;-72
2022/12/24 08:51:25;;;;;;;22.00;3.35;;;9.50;90.20;;;;;;5073039;28;20101;-72
2022/12/24 08:53:52;;;;;;;32.08;4.03;;;9.50;90.30;;;;;;5096017;28;20060;-72
2022/12/24 08:56:19;;;;;;;22.50;3.60;;;9.50;90.30;;;;;;5078101;28;20052;-72
2022/12/24 08:58:48;;;;;;;21.58;3.63;;;9.50;90.40;;;;;;5081095;28;20056;-72
2022/12/24 09:01:17;;;;;;;20.70;3.60;;;9.50;90.40;;;;;;5079155;28;20063;-72
2022/12/24 09:03:45;;;;;;;28.33;4.53;;;9.50;90.50;;;;;;5094618;28;20044;-72
2022/12/24 09:06:12;;;;;;;23.83;4.03;;;9.50;90.60;;;;;;5069253;28;20102;-73
2022/12/24 09:08:39;;;;;;;30.15;4.10;;;9.50;90.50;;;;;;5074658;28;20131;-71
2022/12/24 09:11:09;;;;;;;28.98;4.32;;;9.50;90.50;;;;;;5074827;28;20055;-72
2022/12/24 09:13:36;;;;;;;26.47;3.40;;;9.50;90.70;;;;;;5068563;28;20502;-72
2022/12/24 09:16:05;;;;;;;23.92;3.90;;;9.60;90.70;;;;;;5087245;28;20057;-72
2022/12/24 09:18:33;;;;;;;25.67;4.32;;;9.60;90.80;;;;;;5076045;28;20076;-71
2022/12/24 09:21:01;;;;;;;25.67;4.30;;;9.60;90.80;;;;;;5081258;28;20044;-72
2022/12/24 09:23:28;;;;;;;21.17;3.90;;;9.60;90.80;;;;;;5078112;28;20561;-72
2022/12/24 09:25:55;;;;;;;20.77;3.60;;;9.60;90.70;;;;;;5080336;28;20147;-71
2022/12/24 09:28:23;;;;;;;25.52;4.30;;;9.60;90.80;;;;;;5102268;28;20048;-72
2022/12/24 09:30:58;;;;;;;24.85;3.88;;;9.60;90.80;;;;;;5101039;28;20055;-72
2022/12/24 09:33:26;;;;;;;19.92;3.55;;;9.60;90.80;;;;;;5078380;28;20052;-72
2022/12/24 09:35:54;;;;;;;25.85;4.03;;;9.60;90.80;;;;;;5065407;28;20592;-72
2022/12/24 09:38:21;;;;;;;25.97;4.10;;;9.60;90.90;;;;;;5081253;28;20048;-72
2022/12/24 09:40:50;;;;;;;19.42;3.45;;;9.70;90.90;;;;;;5046809;28;20975;-72
2022/12/24 09:43:20;;;;;;;25.92;4.20;;;9.70;90.90;;;;;;5069590;28;20040;-73
2022/12/24 09:45:55;;;;;;;23.17;3.83;;;9.70;91.00;;;;;;5076501;28;20127;-72
2022/12/24 09:48:28;;;;;;;18.65;3.05;;;9.70;90.90;;;;;;5076435;28;20044;-72
2022/12/24 09:51:00;;;;;;;17.33;2.97;;;9.70;90.60;;;;;;5069058;28;20080;-72
2022/12/24 09:53:36;;;;;;;16.27;3.50;;;9.70;90.30;;;;;;5082066;28;20052;-72
2022/12/24 09:56:11;;;;;;;20.58;3.08;;;9.70;90.40;;;;;;5096486;28;20125;-72
2022/12/24 09:58:43;;;;;;;11.40;2.05;;;9.60;90.50;;;;;;5069092;28;20052;-72
2022/12/24 10:01:12;;;;;;;13.20;2.08;;;9.70;90.50;;;;;;5072255;28;20045;-72
2022/12/24 10:03:41;;;;;;;14.33;2.37;;;9.60;90.60;;;;;;5088660;28;20518;-73
2022/12/24 10:06:14;;;;;;;11.60;1.67;;;9.60;90.70;;;;;;5070389;28;20556;-72
2022/12/24 10:08:51;;;;;;;13.98;2.40;;;9.70;90.70;;;;;;5089339;28;20049;-72
2022/12/24 10:11:24;;;;;;;14.68;2.35;;;9.60;90.70;;;;;;5069834;28;20466;-72
2022/12/24 10:14:05;;;;;;;14.82;2.90;;;9.70;90.70;;;;;;5066911;28;20049;-72
2022/12/24 10:16:41;;;;;;;14.57;2.63;;;9.70;90.80;;;;;;5064830;28;20695;-72
2022/12/24 10:19:17;;;;;;;14.98;2.40;;;9.60;90.90;;;;;;5087809;28;20052;-73
2022/12/24 10:21:57;;;;;;;17.08;2.92;;;9.70;90.90;;;;;;5079922;28;20056;-72
2022/12/24 10:24:30;;;;;;;18.92;2.83;;;9.70;91.10;;;;;;5076709;28;20072;-72
2022/12/24 10:27:02;;;;;;;20.52;3.08;;;9.70;91.00;;;;;;5069544;28;20138;-73
2022/12/24 10:29:32;;;;;;;21.73;2.93;;;9.70;91.10;;;;;;5085888;28;20056;-72
2022/12/24 10:32:10;;;;;;;14.35;2.03;;;9.70;91.10;;;;;;5062206;28;20630;-72
2022/12/24 10:34:43;;;;;;;18.85;2.72;;;9.80;91.00;;;;;;5079656;28;20098;-73
2022/12/24 10:37:16;;;;;;;16.33;3.03;;;9.70;91.00;;;;;;5068341;28;20575;-73
2022/12/24 10:39:43;;;;;;;20.83;3.30;;;9.80;90.80;;;;;;5086316;28;20052;-73
2022/12/24 10:42:15;;;;;;;19.73;2.77;;;9.80;90.70;;;;;;5085929;28;20540;-73
2022/12/24 10:44:51;;;;;;;21.02;3.10;;;9.80;90.60;;;;;;5066770;28;20592;-73
2022/12/24 10:47:20;;;;;;;18.35;3.10;;;9.80;90.50;;;;;;5065509;28;20131;-72
2022/12/24 10:49:55;;;;;;;18.63;3.05;;;9.80;90.50;;;;;;5081092;28;20051;-73
2022/12/24 10:52:27;;;;;;;16.95;2.45;;;9.80;90.50;;;;;;5060451;28;20102;-73
2022/12/24 10:55:10;;;;;;;18.70;2.60;;;9.80;90.60;;;;;;5062692;28;20091;-73
2022/12/24 10:57:39;;;;;;;22.08;3.08;;;9.80;90.60;;;;;;5050378;28;20055;-73
2022/12/24 11:00:18;;;;;;;24.45;4.25;;;9.80;90.70;;;;;;5064354;28;20052;-72
2022/12/24 11:02:47;;;;;;;17.17;2.47;;;9.80;90.70;;;;;;5061546;28;20080;-73
2022/12/24 11:05:31;;;;;;;25.70;3.78;;;9.80;90.70;;;;;;5077057;28;20144;-73
2022/12/24 11:08:02;;;;;;;22.50;3.20;;;9.90;90.80;;;;;;5008443;28;20629;-72
2022/12/24 11:10:29;;;;;;;25.90;3.97;;;9.90;90.70;;;;;;5078115;28;21009;-72
2022/12/24 11:12:57;;;;;;;16.10;2.92;;;9.90;90.70;;;;;;5074776;28;20138;-73
2022/12/24 11:15:27;;;;;;;20.85;3.30;;;9.90;90.70;;;;;;5076463;28;20684;-73
2022/12/24 11:17:56;;;;;;;15.00;3.08;;;9.90;90.60;;;;;;5075253;28;20052;-73
2022/12/24 11:20:29;;;;;;;17.37;2.10;;;9.90;90.60;;;;;;5078092;28;20056;-73
2022/12/24 11:22:57;;;;;;;27.83;3.55;;;9.90;90.70;;;;;;5091209;28;20467;-73
2022/12/24 11:25:27;;;;;;;22.65;3.92;;;10.00;90.40;;;;;;5079033;28;20056;-73
2022/12/24 11:27:56;;;;;;;21.58;2.88;;;10.00;90.30;;;;;;5091908;28;20052;-73
2022/12/24 11:30:31;;;;;;;24.70;3.92;;;10.00;90.30;;;;;;5091126;28;20049;-75
2022/12/24 11:33:18;;;;;;;20.07;3.37;;;10.00;90.30;;;;;;5088670;28;20060;-75
2022/12/24 11:35:51;;;;;;;21.90;2.95;;;10.00;90.30;;;;;;5088915;28;20935;-75
2022/12/24 11:38:22;;;;;;;24.20;3.08;;;10.00;90.40;;;;;;5092905;28;20128;-74
2022/12/24 11:40:56;;;;;;;12.30;2.03;;;10.00;90.30;;;;;;5074025;28;20052;-75
2022/12/24 11:43:23;;;;;;;23.75;3.33;;;10.00;90.20;;;;;;5072868;28;20819;-74
2022/12/24 11:45:53;;;;;;;20.23;3.20;;;10.00;90.00;;;;;;5073473;28;20909;-74
2022/12/24 11:48:29;;;;;;;15.82;2.50;;;10.00;89.90;;;;;;5060477;28;20127;-75
2022/12/24 11:50:59;;;;;;;17.27;3.25;;;10.00;89.80;;;;;;5075427;28;20424;-74
2022/12/24 11:53:33;;;;;;;14.23;2.85;;;10.00;89.60;;;;;;5096766;28;20118;-75
2022/12/24 11:56:02;;;;;;;17.45;2.25;;;10.00;89.10;;;;;;5077067;28;20136;-75
2022/12/24 11:58:37;;;;;;;18.90;2.60;;;10.00;88.90;;;;;;5065640;28;20059;-74
2022/12/24 12:01:14;;;;;;;21.65;2.85;;;10.00;88.90;;;;;;5094092;28;20052;-74
2022/12/24 12:03:45;;;;;;;17.92;3.22;;;10.00;88.70;;;;;;5079469;28;21049;-74
2022/12/24 12:06:25;;;;;;;16.75;3.55;;;10.00;88.60;;;;;;5084658;28;20048;-74
2022/12/24 12:08:58;;;;;;;21.58;3.38;;;10.00;88.50;;;;;;5092879;28;20059;-74
2022/12/24 12:11:27;;;;;;;11.83;1.53;;;10.00;88.10;;;;;;5075026;28;20052;-74
2022/12/24 12:14:01;;;;;;;17.10;2.58;;;10.00;88.20;;;;;;5052867;28;20045;-73
2022/12/24 12:16:59;;;;;;;14.48;2.50;;;10.00;88.20;;;;;;5051860;28;20073;-73
2022/12/24 12:19:26;;;;;;;19.13;2.30;;;10.00;87.90;;;;;;5057554;28;20560;-73
2022/12/24 12:21:54;;;;;;;16.35;2.15;;;10.00;87.80;;;;;;5069702;28;20211;-73
2022/12/24 12:24:26;;;;;;;15.87;2.20;;;10.00;87.70;;;;;;5072155;28;20155;-73
2022/12/24 12:27:03;;;;;;;19.17;3.03;;;10.00;87.30;;;;;;5046210;28;20055;-73
2022/12/24 12:29:33;;;;;;;12.40;1.70;;;10.00;87.30;;;;;;5070586;28;20111;-73
2022/12/24 12:32:07;;;;;;;8.32;1.20;;;10.00;87.40;;;;;;5071098;28;20135;-73
2022/12/24 12:34:39;;;;;;;15.93;2.50;;;10.00;87.40;;;;;;5075463;28;20148;-73
2022/12/24 12:37:12;;;;;;;13.93;2.13;;;10.00;87.40;;;;;;5052019;28;20734;-73
2022/12/24 12:39:39;;;;;;;16.23;2.20;;;10.00;87.10;;;;;;5060221;28;20511;-73
2022/12/24 12:42:15;;;;;;;21.80;2.83;;;10.00;87.10;;;;;;5088742;28;20555;-73
2022/12/24 12:44:54;;;;;;;15.43;2.30;;;10.00;86.80;;;;;;5084591;28;20661;-72
2022/12/24 12:47:41;;;;;;;15.40;2.60;;;10.00;86.80;;;;;;5083250;28;20583;-73
2022/12/24 12:50:16;;;;;;;9.87;1.93;;;10.00;86.70;;;;;;5052904;28;20123;-73
2022/12/24 12:53:07;;;;;;;17.60;2.55;;;10.00;86.80;;;;;;5088913;28;20441;-73
2022/12/24 12:55:43;;;;;;;20.20;2.65;;;10.00;86.80;;;;;;5066666;28;20159;-73
2022/12/24 12:58:17;;;;;;;17.00;2.40;;;10.00;86.80;;;;;;5090034;28;20078;-73
2022/12/24 13:00:49;;;;;;;14.55;2.00;;;10.00;86.70;;;;;;5090403;28;20152;-74
2022/12/24 13:03:46;;;;;;;13.77;2.03;;;10.00;86.80;;;;;;5077095;28;20152;-73
2022/12/24 13:06:36;;;;;;;14.00;2.10;;;10.00;86.70;;;;;;5078388;28;20608;-73
2022/12/24 13:09:51;;;;;;;16.13;2.50;;;10.00;86.70;;;;;;5071672;28;20045;-74